sensor_id;sensor_type;location;lat;lon;timestamp;P1;durP1;ratioP1;P2;durP2;ratioP2
23230;SDS011;11784;49.818;8.632;2023-03-01T00:01:41;3.15;;;1.73;;
23230;SDS011;11784;49.818;8.632;2023-03-01T00:04:06;4.95;;;2.20;;
23230;SDS011;11784;49.818;8.632;2023-03-01T00:06:32;4.55;;;2.00;;
23230;SDS011;11784;49.818;8.632;2023-03-01T00:08:57;4.38;;;2.38;;
23230;SDS011;11784;49.818;8.632;2023-03-01T00:11:24;2.88;;;1.77;;
23230;SDS011;11784;49.818;8.632;2023-03-01T00:13:52;4.13;;;3.05;;
23230;SDS011;11784;49.818;8.632;2023-03-01T00:16:29;5.60;;;2.60;;
23230;SDS011;11784;49.818;8.632;2023-03-01T00:18:58;5.22;;;1.92;;
23230;SDS011;11784;49.818;8.632;2023-03-01T00:21:24;4.00;;;2.55;;
23230;SDS011;11784;49.818;8.632;2023-03-01T00:23:50;4.72;;;1.92;;
23230;SDS011;11784;49.818;8.632;2023-03-01T00:26:17;4.85;;;2.38;;
23230;SDS011;11784;49.818;8.632;2023-03-01T00:28:43;5.75;;;2.28;;
23230;SDS011;11784;49.818;8.632;2023-03-01T00:31:11;5.82;;;2.50;;
23230;SDS011;11784;49.818;8.632;2023-03-01T00:33:43;5.43;;;2.80;;
23230;SDS011;11784;49.818;8.632;2023-03-01T00:36:10;3.65;;;2.13;;
23230;SDS011;11784;49.818;8.632;2023-03-01T00:38:39;5.65;;;2.40;;
23230;SDS011;11784;49.818;8.632;2023-03-01T00:41:07;4.70;;;2.33;;
23230;SDS011;11784;49.818;8.632;2023-03-01T00:43:34;3.42;;;2.05;;
23230;SDS011;11784;49.818;8.632;2023-03-01T00:46:11;5.60;;;2.75;;
23230;SDS011;11784;49.818;8.632;2023-03-01T00:48:38;5.32;;;2.55;;
23230;SDS011;11784;49.818;8.632;2023-03-01T00:51:08;5.47;;;2.22;;
23230;SDS011;11784;49.818;8.632;2023-03-01T00:53:35;5.90;;;2.50;;
23230;SDS011;11784;49.818;8.632;2023-03-01T00:56:02;3.53;;;2.13;;
23230;SDS011;11784;49.818;8.632;2023-03-01T00:58:29;5.78;;;2.40;;
23230;SDS011;11784;49.818;8.632;2023-03-01T01:00:55;5.28;;;2.50;;
23230;SDS011;11784;49.818;8.632;2023-03-01T01:03:21;4.97;;;2.40;;
23230;SDS011;11784;49.818;8.632;2023-03-01T01:05:48;4.28;;;2.35;;
23230;SDS011;11784;49.818;8.632;2023-03-01T01:08:13;4.07;;;1.80;;
23230;SDS011;11784;49.818;8.632;2023-03-01T01:10:39;5.80;;;2.70;;
23230;SDS011;11784;49.818;8.632;2023-03-01T01:13:04;4.55;;;2.30;;
23230;SDS011;11784;49.818;8.632;2023-03-01T01:15:33;5.45;;;2.40;;
23230;SDS011;11784;49.818;8.632;2023-03-01T01:18:00;2.10;;;1.50;;
23230;SDS011;11784;49.818;8.632;2023-03-01T01:20:26;6.30;;;3.20;;
23230;SDS011;11784;49.818;8.632;2023-03-01T01:22:51;5.68;;;2.50;;
23230;SDS011;11784;49.818;8.632;2023-03-01T01:25:17;3.30;;;2.40;;
23230;SDS011;11784;49.818;8.632;2023-03-01T01:27:43;4.40;;;2.58;;
23230;SDS011;11784;49.818;8.632;2023-03-01T01:30:09;6.40;;;2.45;;
23230;SDS011;11784;49.818;8.632;2023-03-01T01:32:36;11.07;;;3.20;;
23230;SDS011;11784;49.818;8.632;2023-03-01T01:35:01;5.63;;;2.88;;
23230;SDS011;11784;49.818;8.632;2023-03-01T01:37:27;4.88;;;2.72;;
23230;SDS011;11784;49.818;8.632;2023-03-01T01:39:56;6.75;;;2.78;;
23230;SDS011;11784;49.818;8.632;2023-03-01T01:42:23;6.28;;;2.42;;
23230;SDS011;11784;49.818;8.632;2023-03-01T01:45:15;7.70;;;2.85;;
23230;SDS011;11784;49.818;8.632;2023-03-01T01:47:49;4.07;;;2.53;;
23230;SDS011;11784;49.818;8.632;2023-03-01T01:50:16;3.38;;;2.10;;
23230;SDS011;11784;49.818;8.632;2023-03-01T01:52:43;4.80;;;2.65;;
23230;SDS011;11784;49.818;8.632;2023-03-01T01:55:11;6.65;;;2.22;;
23230;SDS011;11784;49.818;8.632;2023-03-01T01:57:46;5.50;;;2.55;;
23230;SDS011;11784;49.818;8.632;2023-03-01T02:00:16;6.10;;;2.58;;
23230;SDS011;11784;49.818;8.632;2023-03-01T02:02:48;5.85;;;2.90;;
23230;SDS011;11784;49.818;8.632;2023-03-01T02:08:13;6.35;;;2.33;;
23230;SDS011;11784;49.818;8.632;2023-03-01T02:10:40;5.93;;;2.67;;
23230;SDS011;11784;49.818;8.632;2023-03-01T02:13:07;3.67;;;2.10;;
23230;SDS011;11784;49.818;8.632;2023-03-01T02:15:33;3.70;;;2.55;;
23230;SDS011;11784;49.818;8.632;2023-03-01T02:18:00;4.38;;;2.28;;
23230;SDS011;11784;49.818;8.632;2023-03-01T02:20:44;5.50;;;3.00;;
23230;SDS011;11784;49.818;8.632;2023-03-01T02:23:26;5.60;;;2.13;;
23230;SDS011;11784;49.818;8.632;2023-03-01T02:25:58;3.53;;;2.38;;
23230;SDS011;11784;49.818;8.632;2023-03-01T02:28:32;6.10;;;2.10;;
23230;SDS011;11784;49.818;8.632;2023-03-01T02:31:03;3.03;;;1.88;;
23230;SDS011;11784;49.818;8.632;2023-03-01T02:33:52;6.05;;;2.60;;
23230;SDS011;11784;49.818;8.632;2023-03-01T02:36:20;5.20;;;2.20;;
23230;SDS011;11784;49.818;8.632;2023-03-01T02:38:50;5.78;;;2.42;;
23230;SDS011;11784;49.818;8.632;2023-03-01T02:41:18;7.15;;;2.38;;
23230;SDS011;11784;49.818;8.632;2023-03-01T02:43:45;3.92;;;2.45;;
23230;SDS011;11784;49.818;8.632;2023-03-01T02:46:21;7.13;;;2.53;;
23230;SDS011;11784;49.818;8.632;2023-03-01T02:48:55;4.90;;;2.55;;
23230;SDS011;11784;49.818;8.632;2023-03-01T02:53:55;6.65;;;2.63;;
23230;SDS011;11784;49.818;8.632;2023-03-01T02:56:40;5.85;;;2.50;;
23230;SDS011;11784;49.818;8.632;2023-03-01T02:59:07;5.80;;;2.70;;
23230;SDS011;11784;49.818;8.632;2023-03-01T03:01:34;6.82;;;3.00;;
23230;SDS011;11784;49.818;8.632;2023-03-01T03:04:08;3.88;;;2.45;;
23230;SDS011;11784;49.818;8.632;2023-03-01T03:06:36;6.43;;;2.92;;
23230;SDS011;11784;49.818;8.632;2023-03-01T03:09:02;5.13;;;2.70;;
23230;SDS011;11784;49.818;8.632;2023-03-01T03:11:29;6.93;;;2.70;;
23230;SDS011;11784;49.818;8.632;2023-03-01T03:13:55;6.22;;;2.72;;
23230;SDS011;11784;49.818;8.632;2023-03-01T03:16:21;8.43;;;2.00;;
23230;SDS011;11784;49.818;8.632;2023-03-01T03:18:47;5.78;;;3.30;;
23230;SDS011;11784;49.818;8.632;2023-03-01T03:21:12;3.55;;;2.47;;
23230;SDS011;11784;49.818;8.632;2023-03-01T03:23:39;6.20;;;2.70;;
23230;SDS011;11784;49.818;8.632;2023-03-01T03:26:04;4.65;;;2.65;;
23230;SDS011;11784;49.818;8.632;2023-03-01T03:28:31;5.85;;;3.00;;
23230;SDS011;11784;49.818;8.632;2023-03-01T03:30:57;4.55;;;2.42;;
23230;SDS011;11784;49.818;8.632;2023-03-01T03:33:23;3.83;;;2.42;;
23230;SDS011;11784;49.818;8.632;2023-03-01T03:35:49;5.57;;;3.15;;
23230;SDS011;11784;49.818;8.632;2023-03-01T03:38:16;5.35;;;2.53;;
23230;SDS011;11784;49.818;8.632;2023-03-01T03:40:48;4.32;;;2.58;;
23230;SDS011;11784;49.818;8.632;2023-03-01T03:43:26;4.50;;;2.42;;
23230;SDS011;11784;49.818;8.632;2023-03-01T03:45:51;5.63;;;2.97;;
23230;SDS011;11784;49.818;8.632;2023-03-01T03:48:17;5.13;;;2.58;;
23230;SDS011;11784;49.818;8.632;2023-03-01T03:50:47;4.68;;;2.55;;
23230;SDS011;11784;49.818;8.632;2023-03-01T03:53:17;5.65;;;2.38;;
23230;SDS011;11784;49.818;8.632;2023-03-01T03:55:43;3.60;;;2.40;;
23230;SDS011;11784;49.818;8.632;2023-03-01T03:58:09;4.82;;;2.47;;
23230;SDS011;11784;49.818;8.632;2023-03-01T04:00:43;6.68;;;2.58;;
23230;SDS011;11784;49.818;8.632;2023-03-01T04:03:10;5.03;;;2.55;;
23230;SDS011;11784;49.818;8.632;2023-03-01T04:05:37;4.97;;;2.53;;
23230;SDS011;11784;49.818;8.632;2023-03-01T04:08:03;4.22;;;2.08;;
23230;SDS011;11784;49.818;8.632;2023-03-01T04:10:52;6.10;;;2.63;;
23230;SDS011;11784;49.818;8.632;2023-03-01T04:13:22;4.00;;;2.72;;
23230;SDS011;11784;49.818;8.632;2023-03-01T04:15:50;4.70;;;2.33;;
23230;SDS011;11784;49.818;8.632;2023-03-01T04:18:17;6.85;;;2.80;;
23230;SDS011;11784;49.818;8.632;2023-03-01T04:20:44;4.28;;;2.40;;
23230;SDS011;11784;49.818;8.632;2023-03-01T04:23:15;6.22;;;2.92;;
23230;SDS011;11784;49.818;8.632;2023-03-01T04:25:46;5.15;;;3.20;;
23230;SDS011;11784;49.818;8.632;2023-03-01T04:28:23;3.45;;;2.25;;
23230;SDS011;11784;49.818;8.632;2023-03-01T04:30:51;5.43;;;2.80;;
23230;SDS011;11784;49.818;8.632;2023-03-01T04:33:17;6.60;;;2.97;;
23230;SDS011;11784;49.818;8.632;2023-03-01T04:35:43;4.10;;;3.03;;
23230;SDS011;11784;49.818;8.632;2023-03-01T04:38:09;4.35;;;2.92;;
23230;SDS011;11784;49.818;8.632;2023-03-01T04:40:35;6.97;;;3.55;;
23230;SDS011;11784;49.818;8.632;2023-03-01T04:43:01;3.65;;;2.65;;
23230;SDS011;11784;49.818;8.632;2023-03-01T04:45:27;7.10;;;2.47;;
23230;SDS011;11784;49.818;8.632;2023-03-01T04:47:53;5.88;;;2.97;;
23230;SDS011;11784;49.818;8.632;2023-03-01T04:50:19;3.88;;;2.33;;
23230;SDS011;11784;49.818;8.632;2023-03-01T04:52:45;4.18;;;2.75;;
23230;SDS011;11784;49.818;8.632;2023-03-01T04:55:12;5.70;;;3.28;;
23230;SDS011;11784;49.818;8.632;2023-03-01T04:57:38;6.07;;;2.50;;
23230;SDS011;11784;49.818;8.632;2023-03-01T05:00:04;7.60;;;2.25;;
23230;SDS011;11784;49.818;8.632;2023-03-01T05:02:45;5.82;;;3.00;;
23230;SDS011;11784;49.818;8.632;2023-03-01T05:05:18;8.40;;;2.70;;
23230;SDS011;11784;49.818;8.632;2023-03-01T05:07:44;6.20;;;3.30;;
23230;SDS011;11784;49.818;8.632;2023-03-01T05:10:10;5.78;;;2.95;;
23230;SDS011;11784;49.818;8.632;2023-03-01T05:12:35;4.90;;;2.22;;
23230;SDS011;11784;49.818;8.632;2023-03-01T05:15:02;6.05;;;2.97;;
23230;SDS011;11784;49.818;8.632;2023-03-01T05:17:31;7.43;;;3.08;;
23230;SDS011;11784;49.818;8.632;2023-03-01T05:19:58;7.50;;;2.78;;
23230;SDS011;11784;49.818;8.632;2023-03-01T05:22:24;7.38;;;3.15;;
23230;SDS011;11784;49.818;8.632;2023-03-01T05:24:50;5.10;;;3.08;;
23230;SDS011;11784;49.818;8.632;2023-03-01T05:27:15;4.93;;;2.88;;
23230;SDS011;11784;49.818;8.632;2023-03-01T05:29:41;5.05;;;2.40;;
23230;SDS011;11784;49.818;8.632;2023-03-01T05:32:06;6.60;;;3.25;;
23230;SDS011;11784;49.818;8.632;2023-03-01T05:34:34;3.05;;;2.15;;
23230;SDS011;11784;49.818;8.632;2023-03-01T05:37:01;7.13;;;3.50;;
23230;SDS011;11784;49.818;8.632;2023-03-01T05:39:27;6.30;;;3.28;;
23230;SDS011;11784;49.818;8.632;2023-03-01T05:41:54;5.78;;;2.65;;
23230;SDS011;11784;49.818;8.632;2023-03-01T05:44:22;5.63;;;3.58;;
23230;SDS011;11784;49.818;8.632;2023-03-01T05:46:48;4.78;;;3.17;;
23230;SDS011;11784;49.818;8.632;2023-03-01T05:49:15;7.22;;;3.10;;
23230;SDS011;11784;49.818;8.632;2023-03-01T05:51:41;8.70;;;3.75;;
23230;SDS011;11784;49.818;8.632;2023-03-01T05:54:09;5.90;;;2.38;;
23230;SDS011;11784;49.818;8.632;2023-03-01T05:56:35;4.55;;;2.97;;
23230;SDS011;11784;49.818;8.632;2023-03-01T05:59:02;4.25;;;2.72;;
23230;SDS011;11784;49.818;8.632;2023-03-01T06:01:31;4.25;;;2.40;;
23230;SDS011;11784;49.818;8.632;2023-03-01T06:03:57;6.53;;;3.15;;
23230;SDS011;11784;49.818;8.632;2023-03-01T06:06:23;5.85;;;3.22;;
23230;SDS011;11784;49.818;8.632;2023-03-01T06:08:49;5.03;;;2.95;;
23230;SDS011;11784;49.818;8.632;2023-03-01T06:11:15;4.80;;;2.85;;
23230;SDS011;11784;49.818;8.632;2023-03-01T06:13:44;7.25;;;2.42;;
23230;SDS011;11784;49.818;8.632;2023-03-01T06:16:11;7.97;;;3.05;;
23230;SDS011;11784;49.818;8.632;2023-03-01T06:18:37;5.20;;;2.92;;
23230;SDS011;11784;49.818;8.632;2023-03-01T06:21:03;4.20;;;2.45;;
23230;SDS011;11784;49.818;8.632;2023-03-01T06:23:31;4.57;;;2.55;;
23230;SDS011;11784;49.818;8.632;2023-03-01T06:25:57;3.97;;;2.38;;
23230;SDS011;11784;49.818;8.632;2023-03-01T06:28:23;6.25;;;3.08;;
23230;SDS011;11784;49.818;8.632;2023-03-01T06:30:49;6.68;;;3.03;;
23230;SDS011;11784;49.818;8.632;2023-03-01T06:33:16;6.18;;;3.38;;
23230;SDS011;11784;49.818;8.632;2023-03-01T06:35:44;4.00;;;3.03;;
23230;SDS011;11784;49.818;8.632;2023-03-01T06:38:11;7.00;;;2.88;;
23230;SDS011;11784;49.818;8.632;2023-03-01T06:40:39;9.30;;;3.92;;
23230;SDS011;11784;49.818;8.632;2023-03-01T06:43:05;7.50;;;3.33;;
23230;SDS011;11784;49.818;8.632;2023-03-01T06:45:32;8.40;;;3.63;;
23230;SDS011;11784;49.818;8.632;2023-03-01T06:48:01;10.25;;;3.60;;
23230;SDS011;11784;49.818;8.632;2023-03-01T06:50:31;5.13;;;2.90;;
23230;SDS011;11784;49.818;8.632;2023-03-01T06:52:57;7.97;;;3.63;;
23230;SDS011;11784;49.818;8.632;2023-03-01T06:55:23;6.80;;;3.45;;
23230;SDS011;11784;49.818;8.632;2023-03-01T06:57:48;7.85;;;3.70;;
23230;SDS011;11784;49.818;8.632;2023-03-01T07:00:18;7.35;;;3.72;;
23230;SDS011;11784;49.818;8.632;2023-03-01T07:02:45;5.47;;;3.22;;
23230;SDS011;11784;49.818;8.632;2023-03-01T07:05:10;6.03;;;2.88;;
23230;SDS011;11784;49.818;8.632;2023-03-01T07:07:36;5.82;;;3.60;;
23230;SDS011;11784;49.818;8.632;2023-03-01T07:10:01;5.63;;;3.22;;
23230;SDS011;11784;49.818;8.632;2023-03-01T07:12:27;9.20;;;3.75;;
23230;SDS011;11784;49.818;8.632;2023-03-01T07:14:52;7.40;;;3.15;;
23230;SDS011;11784;49.818;8.632;2023-03-01T07:17:18;4.60;;;2.97;;
23230;SDS011;11784;49.818;8.632;2023-03-01T07:19:43;9.95;;;3.70;;
23230;SDS011;11784;49.818;8.632;2023-03-01T07:22:09;6.80;;;3.22;;
23230;SDS011;11784;49.818;8.632;2023-03-01T07:24:35;3.13;;;2.10;;
23230;SDS011;11784;49.818;8.632;2023-03-01T07:27:01;5.60;;;3.00;;
23230;SDS011;11784;49.818;8.632;2023-03-01T07:29:26;10.35;;;3.58;;
23230;SDS011;11784;49.818;8.632;2023-03-01T07:31:53;7.03;;;3.15;;
23230;SDS011;11784;49.818;8.632;2023-03-01T07:34:19;6.22;;;3.30;;
23230;SDS011;11784;49.818;8.632;2023-03-01T07:36:44;7.68;;;3.53;;
23230;SDS011;11784;49.818;8.632;2023-03-01T07:39:10;10.82;;;4.47;;
23230;SDS011;11784;49.818;8.632;2023-03-01T07:41:36;7.10;;;3.35;;
23230;SDS011;11784;49.818;8.632;2023-03-01T07:44:02;9.02;;;3.60;;
23230;SDS011;11784;49.818;8.632;2023-03-01T07:46:27;6.97;;;3.25;;
23230;SDS011;11784;49.818;8.632;2023-03-01T07:48:53;6.82;;;3.05;;
23230;SDS011;11784;49.818;8.632;2023-03-01T07:51:18;7.13;;;3.13;;
23230;SDS011;11784;49.818;8.632;2023-03-01T07:53:47;6.63;;;4.20;;
23230;SDS011;11784;49.818;8.632;2023-03-01T07:56:13;6.15;;;3.63;;
23230;SDS011;11784;49.818;8.632;2023-03-01T07:58:42;8.07;;;3.42;;
23230;SDS011;11784;49.818;8.632;2023-03-01T08:01:09;4.47;;;2.55;;
23230;SDS011;11784;49.818;8.632;2023-03-01T08:03:37;5.63;;;3.72;;
23230;SDS011;11784;49.818;8.632;2023-03-01T08:06:04;6.38;;;3.20;;
23230;SDS011;11784;49.818;8.632;2023-03-01T08:08:30;9.18;;;4.32;;
23230;SDS011;11784;49.818;8.632;2023-03-01T08:10:57;7.43;;;3.78;;
23230;SDS011;11784;49.818;8.632;2023-03-01T08:13:23;5.75;;;3.53;;
23230;SDS011;11784;49.818;8.632;2023-03-01T08:15:50;10.00;;;3.58;;
23230;SDS011;11784;49.818;8.632;2023-03-01T08:18:16;6.95;;;3.90;;
23230;SDS011;11784;49.818;8.632;2023-03-01T08:20:43;7.15;;;2.95;;
23230;SDS011;11784;49.818;8.632;2023-03-01T08:23:08;7.13;;;3.60;;
23230;SDS011;11784;49.818;8.632;2023-03-01T08:25:34;4.68;;;2.90;;
23230;SDS011;11784;49.818;8.632;2023-03-01T08:27:59;7.13;;;3.85;;
23230;SDS011;11784;49.818;8.632;2023-03-01T08:30:25;9.70;;;4.13;;
23230;SDS011;11784;49.818;8.632;2023-03-01T08:32:51;8.73;;;4.25;;
23230;SDS011;11784;49.818;8.632;2023-03-01T08:35:17;7.43;;;4.38;;
23230;SDS011;11784;49.818;8.632;2023-03-01T08:37:43;6.68;;;3.47;;
23230;SDS011;11784;49.818;8.632;2023-03-01T08:40:09;8.02;;;3.50;;
23230;SDS011;11784;49.818;8.632;2023-03-01T08:42:35;8.82;;;4.20;;
23230;SDS011;11784;49.818;8.632;2023-03-01T08:45:02;6.00;;;3.35;;
23230;SDS011;11784;49.818;8.632;2023-03-01T08:47:28;7.20;;;3.65;;
23230;SDS011;11784;49.818;8.632;2023-03-01T08:49:54;8.52;;;3.25;;
23230;SDS011;11784;49.818;8.632;2023-03-01T08:52:20;5.97;;;3.65;;
23230;SDS011;11784;49.818;8.632;2023-03-01T08:54:48;7.80;;;3.83;;
23230;SDS011;11784;49.818;8.632;2023-03-01T08:57:14;8.40;;;3.33;;
23230;SDS011;11784;49.818;8.632;2023-03-01T08:59:39;6.03;;;3.25;;
23230;SDS011;11784;49.818;8.632;2023-03-01T09:02:06;7.20;;;3.22;;
23230;SDS011;11784;49.818;8.632;2023-03-01T09:04:37;6.63;;;4.10;;
23230;SDS011;11784;49.818;8.632;2023-03-01T09:07:03;10.82;;;3.80;;
23230;SDS011;11784;49.818;8.632;2023-03-01T09:09:29;6.95;;;4.22;;
23230;SDS011;11784;49.818;8.632;2023-03-01T09:11:54;6.22;;;3.50;;
23230;SDS011;11784;49.818;8.632;2023-03-01T09:14:20;5.70;;;3.53;;
23230;SDS011;11784;49.818;8.632;2023-03-01T09:16:45;6.07;;;3.80;;
23230;SDS011;11784;49.818;8.632;2023-03-01T09:19:11;6.10;;;3.33;;
23230;SDS011;11784;49.818;8.632;2023-03-01T09:21:37;6.57;;;3.65;;
23230;SDS011;11784;49.818;8.632;2023-03-01T09:24:02;7.03;;;3.97;;
23230;SDS011;11784;49.818;8.632;2023-03-01T09:26:28;8.02;;;4.20;;
23230;SDS011;11784;49.818;8.632;2023-03-01T09:28:54;8.10;;;3.67;;
23230;SDS011;11784;49.818;8.632;2023-03-01T09:31:21;7.55;;;3.95;;
23230;SDS011;11784;49.818;8.632;2023-03-01T09:33:49;8.48;;;4.32;;
23230;SDS011;11784;49.818;8.632;2023-03-01T09:36:17;9.52;;;4.22;;
23230;SDS011;11784;49.818;8.632;2023-03-01T09:38:44;8.43;;;4.32;;
23230;SDS011;11784;49.818;8.632;2023-03-01T09:41:23;11.50;;;4.55;;
23230;SDS011;11784;49.818;8.632;2023-03-01T09:43:56;10.93;;;4.47;;
23230;SDS011;11784;49.818;8.632;2023-03-01T09:46:37;8.85;;;4.60;;
23230;SDS011;11784;49.818;8.632;2023-03-01T09:49:10;8.00;;;4.15;;
23230;SDS011;11784;49.818;8.632;2023-03-01T09:51:42;8.73;;;4.40;;
23230;SDS011;11784;49.818;8.632;2023-03-01T09:54:18;9.82;;;4.90;;
23230;SDS011;11784;49.818;8.632;2023-03-01T09:56:45;9.63;;;4.80;;
23230;SDS011;11784;49.818;8.632;2023-03-01T09:59:30;8.07;;;4.63;;
23230;SDS011;11784;49.818;8.632;2023-03-01T10:04:46;8.23;;;4.25;;
23230;SDS011;11784;49.818;8.632;2023-03-01T10:07:20;8.57;;;4.00;;
23230;SDS011;11784;49.818;8.632;2023-03-01T10:10:04;14.93;;;5.93;;
23230;SDS011;11784;49.818;8.632;2023-03-01T10:12:37;8.98;;;5.05;;
23230;SDS011;11784;49.818;8.632;2023-03-01T10:18:00;12.93;;;4.45;;
23230;SDS011;11784;49.818;8.632;2023-03-01T10:23:23;11.40;;;5.40;;
23230;SDS011;11784;49.818;8.632;2023-03-01T10:28:29;10.52;;;4.63;;
23230;SDS011;11784;49.818;8.632;2023-03-01T10:31:04;13.23;;;5.15;;
23230;SDS011;11784;49.818;8.632;2023-03-01T10:33:35;15.15;;;5.32;;
23230;SDS011;11784;49.818;8.632;2023-03-01T10:36:04;9.45;;;4.90;;
23230;SDS011;11784;49.818;8.632;2023-03-01T10:38:31;9.07;;;5.13;;
23230;SDS011;11784;49.818;8.632;2023-03-01T10:41:18;9.00;;;5.05;;
23230;SDS011;11784;49.818;8.632;2023-03-01T10:43:51;13.00;;;5.25;;
23230;SDS011;11784;49.818;8.632;2023-03-01T10:49:06;15.07;;;5.57;;
23230;SDS011;11784;49.818;8.632;2023-03-01T10:51:36;10.43;;;4.95;;
23230;SDS011;11784;49.818;8.632;2023-03-01T10:54:04;11.02;;;4.20;;
23230;SDS011;11784;49.818;8.632;2023-03-01T10:56:49;10.30;;;4.60;;
23230;SDS011;11784;49.818;8.632;2023-03-01T10:59:22;9.65;;;4.55;;
23230;SDS011;11784;49.818;8.632;2023-03-01T11:02:15;10.77;;;5.00;;
23230;SDS011;11784;49.818;8.632;2023-03-01T11:05:01;11.50;;;5.03;;
23230;SDS011;11784;49.818;8.632;2023-03-01T11:07:27;9.40;;;4.60;;
23230;SDS011;11784;49.818;8.632;2023-03-01T11:09:53;10.60;;;4.57;;
23230;SDS011;11784;49.818;8.632;2023-03-01T11:12:19;10.55;;;5.20;;
23230;SDS011;11784;49.818;8.632;2023-03-01T11:14:46;9.52;;;5.05;;
23230;SDS011;11784;49.818;8.632;2023-03-01T11:17:21;10.48;;;4.78;;
23230;SDS011;11784;49.818;8.632;2023-03-01T11:22:46;12.52;;;4.60;;
23230;SDS011;11784;49.818;8.632;2023-03-01T11:25:14;12.38;;;5.10;;
23230;SDS011;11784;49.818;8.632;2023-03-01T11:27:43;9.68;;;5.03;;
23230;SDS011;11784;49.818;8.632;2023-03-01T11:33:01;8.82;;;4.55;;
23230;SDS011;11784;49.818;8.632;2023-03-01T11:35:28;10.85;;;4.35;;
23230;SDS011;11784;49.818;8.632;2023-03-01T11:43:26;10.27;;;4.75;;
23230;SDS011;11784;49.818;8.632;2023-03-01T11:57:18;8.90;;;4.05;;
23230;SDS011;11784;49.818;8.632;2023-03-01T12:00:06;8.73;;;4.00;;
23230;SDS011;11784;49.818;8.632;2023-03-01T12:16:29;7.78;;;3.05;;
23230;SDS011;11784;49.818;8.632;2023-03-01T12:22:09;6.75;;;3.50;;
23230;SDS011;11784;49.818;8.632;2023-03-01T12:30:25;6.47;;;3.50;;
23230;SDS011;11784;49.818;8.632;2023-03-01T12:38:29;4.63;;;2.50;;
23230;SDS011;11784;49.818;8.632;2023-03-01T12:46:34;6.38;;;3.10;;
23230;SDS011;11784;49.818;8.632;2023-03-01T12:49:26;4.35;;;2.47;;
23230;SDS011;11784;49.818;8.632;2023-03-01T12:54:42;6.72;;;2.88;;
23230;SDS011;11784;49.818;8.632;2023-03-01T13:00:05;8.50;;;3.45;;
23230;SDS011;11784;49.818;8.632;2023-03-01T13:02:47;3.92;;;2.00;;
23230;SDS011;11784;49.818;8.632;2023-03-01T13:05:29;6.45;;;2.75;;
23230;SDS011;11784;49.818;8.632;2023-03-01T13:08:13;5.65;;;3.08;;
23230;SDS011;11784;49.818;8.632;2023-03-01T13:10:48;9.10;;;3.58;;
23230;SDS011;11784;49.818;8.632;2023-03-01T13:13:23;6.15;;;2.78;;
23230;SDS011;11784;49.818;8.632;2023-03-01T13:15:50;5.65;;;2.90;;
23230;SDS011;11784;49.818;8.632;2023-03-01T13:20:48;3.45;;;1.88;;
23230;SDS011;11784;49.818;8.632;2023-03-01T13:33:55;7.40;;;2.50;;
23230;SDS011;11784;49.818;8.632;2023-03-01T13:37:04;6.03;;;2.78;;
23230;SDS011;11784;49.818;8.632;2023-03-01T13:39:28;5.55;;;2.90;;
23230;SDS011;11784;49.818;8.632;2023-03-01T13:41:57;6.00;;;3.13;;
23230;SDS011;11784;49.818;8.632;2023-03-01T13:44:35;10.73;;;4.15;;
23230;SDS011;11784;49.818;8.632;2023-03-01T13:47:24;5.72;;;3.22;;
23230;SDS011;11784;49.818;8.632;2023-03-01T13:49:52;8.90;;;3.50;;
23230;SDS011;11784;49.818;8.632;2023-03-01T13:52:43;8.55;;;3.50;;
23230;SDS011;11784;49.818;8.632;2023-03-01T13:57:42;16.13;;;3.72;;
23230;SDS011;11784;49.818;8.632;2023-03-01T14:00:25;9.38;;;3.70;;
23230;SDS011;11784;49.818;8.632;2023-03-01T14:03:27;8.88;;;3.15;;
23230;SDS011;11784;49.818;8.632;2023-03-01T14:05:59;10.32;;;3.13;;
23230;SDS011;11784;49.818;8.632;2023-03-01T14:08:33;8.43;;;3.83;;
23230;SDS011;11784;49.818;8.632;2023-03-01T14:11:21;8.60;;;3.92;;
23230;SDS011;11784;49.818;8.632;2023-03-01T14:19:27;5.43;;;2.60;;
23230;SDS011;11784;49.818;8.632;2023-03-01T14:24:49;5.45;;;3.10;;
23230;SDS011;11784;49.818;8.632;2023-03-01T14:27:16;6.35;;;2.95;;
23230;SDS011;11784;49.818;8.632;2023-03-01T14:29:43;5.20;;;2.70;;
23230;SDS011;11784;49.818;8.632;2023-03-01T14:32:19;7.53;;;3.05;;
23230;SDS011;11784;49.818;8.632;2023-03-01T14:34:47;9.55;;;3.45;;
23230;SDS011;11784;49.818;8.632;2023-03-01T14:37:27;8.05;;;3.50;;
23230;SDS011;11784;49.818;8.632;2023-03-01T14:39:57;9.45;;;3.60;;
23230;SDS011;11784;49.818;8.632;2023-03-01T14:42:24;5.90;;;3.15;;
23230;SDS011;11784;49.818;8.632;2023-03-01T14:44:53;9.02;;;3.53;;
23230;SDS011;11784;49.818;8.632;2023-03-01T14:47:25;5.93;;;3.25;;
23230;SDS011;11784;49.818;8.632;2023-03-01T14:49:59;7.40;;;3.42;;
23230;SDS011;11784;49.818;8.632;2023-03-01T14:52:50;7.38;;;3.58;;
23230;SDS011;11784;49.818;8.632;2023-03-01T14:55:19;6.85;;;3.13;;
23230;SDS011;11784;49.818;8.632;2023-03-01T14:57:47;6.82;;;3.03;;
23230;SDS011;11784;49.818;8.632;2023-03-01T15:00:18;7.13;;;3.20;;
23230;SDS011;11784;49.818;8.632;2023-03-01T15:02:44;4.65;;;2.35;;
23230;SDS011;11784;49.818;8.632;2023-03-01T15:05:13;7.57;;;3.53;;
23230;SDS011;11784;49.818;8.632;2023-03-01T15:07:40;5.03;;;3.10;;
23230;SDS011;11784;49.818;8.632;2023-03-01T15:10:16;5.93;;;3.03;;
23230;SDS011;11784;49.818;8.632;2023-03-01T15:12:44;5.47;;;2.67;;
23230;SDS011;11784;49.818;8.632;2023-03-01T15:15:20;6.40;;;3.35;;
23230;SDS011;11784;49.818;8.632;2023-03-01T15:18:01;7.22;;;3.45;;
23230;SDS011;11784;49.818;8.632;2023-03-01T15:20:42;4.78;;;2.70;;
23230;SDS011;11784;49.818;8.632;2023-03-01T15:23:16;7.40;;;3.40;;
23230;SDS011;11784;49.818;8.632;2023-03-01T15:25:50;5.63;;;3.08;;
23230;SDS011;11784;49.818;8.632;2023-03-01T15:28:21;5.93;;;3.13;;
23230;SDS011;11784;49.818;8.632;2023-03-01T15:30:59;5.70;;;2.72;;
23230;SDS011;11784;49.818;8.632;2023-03-01T15:33:35;8.93;;;3.15;;
23230;SDS011;11784;49.818;8.632;2023-03-01T15:36:47;7.97;;;3.33;;
23230;SDS011;11784;49.818;8.632;2023-03-01T15:38:56;6.68;;;2.97;;
23230;SDS011;11784;49.818;8.632;2023-03-01T15:41:32;6.57;;;2.80;;
23230;SDS011;11784;49.818;8.632;2023-03-01T15:44:16;7.60;;;3.45;;
23230;SDS011;11784;49.818;8.632;2023-03-01T15:46:53;5.68;;;2.85;;
23230;SDS011;11784;49.818;8.632;2023-03-01T15:49:35;4.90;;;2.88;;
23230;SDS011;11784;49.818;8.632;2023-03-01T15:52:05;5.18;;;3.00;;
23230;SDS011;11784;49.818;8.632;2023-03-01T15:54:38;4.50;;;2.83;;
23230;SDS011;11784;49.818;8.632;2023-03-01T15:57:07;6.18;;;3.05;;
23230;SDS011;11784;49.818;8.632;2023-03-01T15:59:37;6.22;;;2.92;;
23230;SDS011;11784;49.818;8.632;2023-03-01T16:02:08;6.45;;;3.05;;
23230;SDS011;11784;49.818;8.632;2023-03-01T16:04:37;4.88;;;2.65;;
23230;SDS011;11784;49.818;8.632;2023-03-01T16:07:03;5.10;;;2.60;;
23230;SDS011;11784;49.818;8.632;2023-03-01T16:09:29;5.00;;;2.90;;
23230;SDS011;11784;49.818;8.632;2023-03-01T16:11:54;6.60;;;2.67;;
23230;SDS011;11784;49.818;8.632;2023-03-01T16:14:19;9.02;;;3.20;;
23230;SDS011;11784;49.818;8.632;2023-03-01T16:16:45;6.72;;;3.17;;
23230;SDS011;11784;49.818;8.632;2023-03-01T16:19:13;5.93;;;2.88;;
23230;SDS011;11784;49.818;8.632;2023-03-01T16:21:38;7.50;;;3.53;;
23230;SDS011;11784;49.818;8.632;2023-03-01T16:24:04;5.85;;;3.13;;
23230;SDS011;11784;49.818;8.632;2023-03-01T16:26:31;7.65;;;2.95;;
23230;SDS011;11784;49.818;8.632;2023-03-01T16:28:57;6.43;;;2.90;;
23230;SDS011;11784;49.818;8.632;2023-03-01T16:31:23;6.38;;;2.95;;
23230;SDS011;11784;49.818;8.632;2023-03-01T16:33:52;6.60;;;3.45;;
23230;SDS011;11784;49.818;8.632;2023-03-01T16:36:19;5.93;;;3.35;;
23230;SDS011;11784;49.818;8.632;2023-03-01T16:38:48;6.10;;;2.85;;
23230;SDS011;11784;49.818;8.632;2023-03-01T16:41:15;6.55;;;3.17;;
23230;SDS011;11784;49.818;8.632;2023-03-01T16:43:43;5.93;;;3.42;;
23230;SDS011;11784;49.818;8.632;2023-03-01T16:46:11;9.45;;;3.58;;